Time;durP1;ratioP1;P1;durP2;ratioP2;P2;SDS_P1;SDS_P2;PMS_P1;PMS_P2;Temp;Humidity;BMP_temperature;BMP_pressure;BME280_temperature;BME280_humidity;BME280_pressure;Samples;Min_cycle;Max_cycle;Signal;HPM_P1;HPM_P2
2021/12/19 00:00:14;;;;;;;9.43;5.22;;;8.30;40.70;;;;;;4994773;28;20057;-73
2021/12/19 00:03:02;;;;;;;9.77;4.70;;;8.30;41.00;;;;;;4994593;28;20077;-73
2021/12/19 00:08:37;;;;;;;10.45;5.20;;;8.10;40.80;;;;;;4994943;28;20482;-71
2021/12/19 00:11:03;;;;;;;11.13;5.65;;;8.10;41.80;;;;;;4977354;28;20049;-72
2021/12/19 00:13:29;;;;;;;10.05;5.70;;;8.10;40.60;;;;;;4994678;28;20543;-72
2021/12/19 00:15:56;;;;;;;12.15;5.65;;;8.00;40.40;;;;;;4994739;28;20030;-72
2021/12/19 00:18:22;;;;;;;9.10;5.70;;;8.00;40.80;;;;;;4977038;28;20041;-72
2021/12/19 00:20:48;;;;;;;12.07;6.03;;;8.10;40.80;;;;;;4994502;28;20531;-73
2021/12/19 00:23:14;;;;;;;10.75;5.50;;;8.10;41.20;;;;;;4994440;28;20480;-72
2021/12/19 00:25:40;;;;;;;14.85;6.55;;;8.00;41.20;;;;;;4994416;28;20033;-72
2021/12/19 00:28:06;;;;;;;13.68;6.63;;;8.10;42.00;;;;;;4994374;28;20066;-72
2021/12/19 00:30:32;;;;;;;12.70;6.03;;;8.10;41.10;;;;;;4994433;28;20030;-71
2021/12/19 00:32:58;;;;;;;13.30;6.45;;;8.00;41.30;;;;;;4994367;28;20487;-72
2021/12/19 00:35:24;;;;;;;13.00;6.07;;;8.00;41.50;;;;;;4993628;28;20029;-72
2021/12/19 00:37:51;;;;;;;11.52;6.03;;;8.00;41.30;;;;;;4994162;28;20030;-72
2021/12/19 00:40:17;;;;;;;13.88;5.75;;;8.00;41.70;;;;;;4994106;28;20022;-72
2021/12/19 00:42:50;;;;;;;12.65;5.75;;;8.00;41.40;;;;;;4994365;28;20471;-72
2021/12/19 00:45:24;;;;;;;9.70;5.30;;;8.00;41.10;;;;;;4994141;28;20031;-72
2021/12/19 00:47:50;;;;;;;10.85;5.40;;;8.00;40.80;;;;;;4993889;28;20030;-71
2021/12/19 00:50:16;;;;;;;10.63;5.97;;;7.90;42.20;;;;;;4994046;28;20050;-71
2021/12/19 00:52:42;;;;;;;10.88;5.45;;;7.90;41.90;;;;;;4994055;28;20027;-72
2021/12/19 00:55:08;;;;;;;9.43;5.47;;;7.90;42.40;;;;;;4994009;28;20072;-71
2021/12/19 00:57:35;;;;;;;10.85;4.90;;;8.00;42.00;;;;;;4993847;28;20146;-72
2021/12/19 01:00:00;;;;;;;9.63;5.22;;;7.90;41.80;;;;;;4993768;28;20030;-72
2021/12/19 01:02:26;;;;;;;9.30;5.60;;;7.80;41.80;;;;;;4993913;28;20464;-71
2021/12/19 01:04:52;;;;;;;9.02;5.50;;;7.80;42.20;;;;;;4993794;28;20029;-71
2021/12/19 01:07:18;;;;;;;9.85;5.50;;;7.80;42.70;;;;;;4993622;28;20125;-71
2021/12/19 01:09:44;;;;;;;9.93;5.57;;;7.80;42.50;;;;;;4976240;28;20492;-72
2021/12/19 01:12:10;;;;;;;8.68;4.80;;;7.70;42.30;;;;;;4993614;28;20061;-73
2021/12/19 01:14:37;;;;;;;8.73;5.15;;;7.80;43.10;;;;;;4993432;28;20480;-72
2021/12/19 01:17:04;;;;;;;10.05;5.60;;;7.80;42.40;;;;;;4976102;28;20109;-72
2021/12/19 01:19:30;;;;;;;10.35;5.18;;;7.80;42.30;;;;;;4993677;28;20106;-72
2021/12/19 01:21:55;;;;;;;9.27;4.43;;;7.80;42.30;;;;;;4993903;28;20113;-72
2021/12/19 01:24:21;;;;;;;9.93;4.90;;;7.80;42.30;;;;;;4976007;28;20072;-71
2021/12/19 01:26:47;;;;;;;8.38;5.13;;;7.80;42.20;;;;;;4993532;28;20026;-72
2021/12/19 01:29:13;;;;;;;8.95;5.32;;;7.70;41.80;;;;;;4993406;28;20049;-73
2021/12/19 01:31:39;;;;;;;9.00;4.80;;;7.80;42.40;;;;;;4993552;28;20105;-72
2021/12/19 01:34:05;;;;;;;9.43;4.70;;;7.80;42.20;;;;;;4993559;28;20189;-72
2021/12/19 01:36:31;;;;;;;9.20;4.97;;;7.70;42.40;;;;;;4993525;28;20127;-72
2021/12/19 01:38:57;;;;;;;8.90;5.10;;;7.70;42.70;;;;;;4993391;28;20576;-72
2021/12/19 01:41:23;;;;;;;9.30;4.20;;;7.70;42.80;;;;;;4993369;28;20088;-72
2021/12/19 01:43:49;;;;;;;8.52;4.70;;;7.70;42.60;;;;;;4993214;28;20128;-72
2021/12/19 01:46:15;;;;;;;10.23;4.60;;;7.80;43.60;;;;;;4993131;28;20060;-72
2021/12/19 01:48:41;;;;;;;7.93;4.55;;;7.80;43.20;;;;;;4992979;28;20088;-72
2021/12/19 01:51:06;;;;;;;11.23;4.50;;;7.80;43.00;;;;;;4993241;28;20467;-72
2021/12/19 01:53:32;;;;;;;7.10;3.95;;;7.70;42.60;;;;;;4993390;28;20468;-72
2021/12/19 01:55:58;;;;;;;9.15;4.03;;;7.70;43.00;;;;;;4993365;28;20037;-72
2021/12/19 01:58:24;;;;;;;10.02;4.22;;;7.60;43.30;;;;;;4993102;28;20081;-72
2021/12/19 02:00:53;;;;;;;8.50;4.38;;;7.60;43.20;;;;;;4993287;28;20031;-73
2021/12/19 02:03:20;;;;;;;8.98;4.20;;;7.60;43.70;;;;;;4993560;28;20174;-71
2021/12/19 02:05:46;;;;;;;9.20;4.30;;;7.60;44.30;;;;;;4993581;28;20031;-72
2021/12/19 02:08:13;;;;;;;7.22;3.90;;;7.50;43.90;;;;;;4992848;28;20447;-71
2021/12/19 02:10:41;;;;;;;9.10;4.18;;;7.50;44.30;;;;;;4992890;28;20113;-71
2021/12/19 02:13:09;;;;;;;8.13;4.00;;;7.50;44.90;;;;;;4993478;28;20089;-72
2021/12/19 02:15:35;;;;;;;8.13;4.07;;;7.40;44.40;;;;;;4993241;28;20029;-72
2021/12/19 02:18:07;;;;;;;9.68;4.03;;;7.40;44.80;;;;;;4993362;28;20038;-71
2021/12/19 02:20:36;;;;;;;6.90;4.03;;;7.40;44.50;;;;;;4993438;28;20464;-72
2021/12/19 02:23:03;;;;;;;8.63;4.28;;;7.30;44.70;;;;;;4992976;28;20039;-72
2021/12/19 02:25:29;;;;;;;8.70;4.00;;;7.30;45.50;;;;;;4975299;28;20419;-72
2021/12/19 02:27:55;;;;;;;7.88;4.32;;;7.30;45.60;;;;;;4993127;28;20404;-72
2021/12/19 02:30:21;;;;;;;8.63;4.53;;;7.30;45.60;;;;;;4993503;28;20030;-72
2021/12/19 02:32:47;;;;;;;7.88;4.18;;;7.30;46.20;;;;;;4993130;28;20078;-72
2021/12/19 02:35:19;;;;;;;7.05;3.85;;;7.30;45.90;;;;;;4993350;28;20436;-73
2021/12/19 02:48:48;;;;;;;8.63;4.20;;;7.20;46.70;;;;;;4992523;28;20136;-72
2021/12/19 02:51:14;;;;;;;9.15;4.45;;;7.10;46.50;;;;;;4992813;28;20543;-72
2021/12/19 02:53:43;;;;;;;7.72;4.63;;;7.10;46.70;;;;;;4975058;28;20053;-71
2021/12/19 02:56:11;;;;;;;8.85;4.43;;;7.10;47.00;;;;;;4992713;28;20025;-72
2021/12/19 02:58:40;;;;;;;8.73;4.30;;;7.10;47.10;;;;;;4994810;28;20035;-71
2021/12/19 03:01:10;;;;;;;7.60;4.22;;;7.20;46.80;;;;;;4996324;28;20076;-71
2021/12/19 03:03:36;;;;;;;9.15;4.53;;;7.20;47.00;;;;;;4996289;28;20022;-71
2021/12/19 03:06:02;;;;;;;7.70;4.65;;;7.20;47.40;;;;;;4996113;28;20109;-71
2021/12/19 03:08:29;;;;;;;9.95;4.47;;;7.20;47.30;;;;;;4996012;28;20113;-72
2021/12/19 03:18:47;;;;;;;9.00;4.22;;;7.10;47.20;;;;;;4995864;28;20071;-72
2021/12/19 03:21:16;;;;;;;7.10;4.15;;;7.20;47.90;;;;;;4978398;28;20466;-72
2021/12/19 03:23:42;;;;;;;7.57;4.18;;;7.10;47.60;;;;;;4995621;28;20030;-73
2021/12/19 03:26:08;;;;;;;9.05;4.20;;;7.20;47.70;;;;;;4995654;28;20156;-71
2021/12/19 03:28:35;;;;;;;9.57;4.70;;;7.20;47.90;;;;;;4977947;28;20476;-72
2021/12/19 03:31:04;;;;;;;7.47;3.95;;;7.10;47.80;;;;;;4995852;28;20026;-72
2021/12/19 03:33:31;;;;;;;8.43;4.25;;;7.10;47.70;;;;;;4995609;28;20038;-72
2021/12/19 03:35:57;;;;;;;9.73;4.65;;;7.10;48.00;;;;;;4995678;28;20022;-71
2021/12/19 03:38:24;;;;;;;7.85;4.03;;;7.10;48.10;;;;;;4995381;28;20395;-73
2021/12/19 03:41:09;;;;;;;9.73;4.32;;;7.00;47.90;;;;;;4995530;28;20022;-71
2021/12/19 03:43:35;;;;;;;8.98;4.40;;;7.10;48.50;;;;;;4995472;28;20030;-72
2021/12/19 03:46:02;;;;;;;10.80;4.38;;;7.10;48.40;;;;;;4995483;28;20022;-71
2021/12/19 03:48:28;;;;;;;9.48;4.50;;;7.00;48.10;;;;;;4995222;28;20084;-73
2021/12/19 03:50:53;;;;;;;8.60;4.45;;;6.90;48.20;;;;;;4995058;28;20121;-72
2021/12/19 03:53:22;;;;;;;9.23;4.47;;;6.90;48.60;;;;;;4995363;28;20580;-72
2021/12/19 03:55:48;;;;;;;7.38;4.18;;;7.00;48.50;;;;;;4995340;28;20072;-72
2021/12/19 03:58:16;;;;;;;7.45;3.80;;;7.00;48.50;;;;;;4977791;28;20514;-71
2021/12/19 04:00:43;;;;;;;9.07;4.03;;;7.00;48.70;;;;;;4995224;28;20030;-72
2021/12/19 04:03:10;;;;;;;7.55;4.03;;;7.00;48.80;;;;;;4995142;28;20153;-72
2021/12/19 04:05:40;;;;;;;7.30;3.80;;;6.90;48.50;;;;;;4995048;28;20069;-71
2021/12/19 04:08:06;;;;;;;12.75;4.35;;;7.00;48.60;;;;;;4994745;28;20182;-70
2021/12/19 04:10:31;;;;;;;7.18;3.58;;;7.00;48.70;;;;;;4994963;28;20468;-71
2021/12/19 04:12:57;;;;;;;5.88;3.63;;;7.10;48.70;;;;;;4994965;28;20034;-72
2021/12/19 04:15:23;;;;;;;9.85;4.38;;;7.00;48.60;;;;;;4994810;28;20027;-72
2021/12/19 04:17:50;;;;;;;8.13;3.55;;;7.00;48.70;;;;;;4994587;28;20027;-71
2021/12/19 04:20:18;;;;;;;10.00;3.83;;;7.00;48.70;;;;;;4994652;28;20109;-72
2021/12/19 04:22:44;;;;;;;7.50;3.95;;;7.00;49.00;;;;;;4994466;28;20383;-71
2021/12/19 04:25:11;;;;;;;7.75;3.83;;;6.90;48.90;;;;;;4994671;28;20030;-72
2021/12/19 04:27:37;;;;;;;7.50;3.60;;;6.90;48.90;;;;;;4994358;28;20031;-71
2021/12/19 04:30:05;;;;;;;7.57;4.03;;;6.90;49.00;;;;;;4994429;28;20037;-72
2021/12/19 04:32:36;;;;;;;7.47;3.72;;;6.90;49.00;;;;;;4994429;28;20026;-73
2021/12/19 04:35:02;;;;;;;8.23;3.85;;;6.90;48.90;;;;;;4994792;28;20030;-71
2021/12/19 04:37:59;;;;;;;9.15;4.10;;;7.00;49.70;;;;;;4994689;28;20124;-72
2021/12/19 04:40:23;;;;;;;8.18;4.13;;;6.90;48.90;;;;;;4993961;28;20473;-72
2021/12/19 04:54:15;;;;;;;9.68;4.10;;;6.80;49.30;;;;;;4994044;28;20038;-72
2021/12/19 04:56:34;;;;;;;7.00;3.78;;;6.70;49.10;;;;;;4993509;28;20380;-72
2021/12/19 05:04:12;;;;;;;7.68;3.85;;;6.70;49.50;;;;;;4994107;28;20483;-72
2021/12/19 05:14:44;;;;;;;8.20;4.18;;;6.60;49.70;;;;;;4993596;28;20578;-72
2021/12/19 05:17:16;;;;;;;12.60;4.65;;;6.70;49.70;;;;;;4993620;28;20032;-72
2021/12/19 05:19:50;;;;;;;9.68;4.50;;;6.70;50.10;;;;;;4993643;28;20027;-72
2021/12/19 05:22:18;;;;;;;7.80;4.30;;;6.70;49.80;;;;;;4993576;28;20026;-71
2021/12/19 05:25:01;;;;;;;9.43;4.50;;;6.70;49.60;;;;;;4993503;28;20061;-71
2021/12/19 05:27:27;;;;;;;10.63;4.32;;;6.60;50.10;;;;;;4993251;28;20031;-72
2021/12/19 05:29:52;;;;;;;10.15;4.20;;;6.50;49.80;;;;;;4993392;28;20491;-71
2021/12/19 05:32:18;;;;;;;10.63;3.80;;;6.40;49.70;;;;;;4993467;28;20030;-72
2021/12/19 05:34:44;;;;;;;6.57;3.85;;;6.40;50.00;;;;;;4993400;28;20034;-72
2021/12/19 05:45:22;;;;;;;10.77;5.05;;;6.30;51.00;;;;;;4993188;28;20382;-72
2021/12/19 05:47:50;;;;;;;8.95;4.68;;;6.40;50.50;;;;;;4993112;28;20035;-72
2021/12/19 05:50:21;;;;;;;9.73;4.72;;;6.40;50.40;;;;;;4993126;28;20050;-72
2021/12/19 05:52:47;;;;;;;7.40;3.97;;;6.50;49.90;;;;;;4993262;28;20053;-72
2021/12/19 05:55:14;;;;;;;9.13;3.95;;;6.50;50.00;;;;;;4975684;28;20415;-71
2021/12/19 05:57:40;;;;;;;7.50;4.43;;;6.40;50.40;;;;;;4993102;28;20052;-72
2021/12/19 06:00:09;;;;;;;11.45;4.53;;;6.40;50.10;;;;;;4992985;28;20496;-73
2021/12/19 06:02:35;;;;;;;9.95;4.80;;;6.30;50.40;;;;;;4993134;28;20022;-71
2021/12/19 06:05:02;;;;;;;8.02;4.90;;;6.20;50.20;;;;;;4975773;28;20403;-72
2021/12/19 06:07:28;;;;;;;8.65;5.07;;;6.20;50.50;;;;;;4992914;28;20026;-73
2021/12/19 06:09:54;;;;;;;9.43;5.25;;;6.20;50.30;;;;;;4993050;28;20506;-72
2021/12/19 06:12:19;;;;;;;10.25;5.22;;;6.20;50.70;;;;;;4993005;28;20031;-73
2021/12/19 06:14:45;;;;;;;11.70;5.45;;;6.10;50.70;;;;;;4993178;28;20142;-72
2021/12/19 06:17:11;;;;;;;9.90;5.50;;;6.10;50.70;;;;;;4992895;28;20392;-73
2021/12/19 06:19:37;;;;;;;10.25;5.20;;;6.00;50.60;;;;;;4993127;28;20025;-72
2021/12/19 06:22:05;;;;;;;8.75;5.10;;;6.10;50.80;;;;;;4992970;28;20530;-72
2021/12/19 06:24:32;;;;;;;11.43;5.35;;;6.10;50.40;;;;;;4992789;28;20483;-72
2021/12/19 06:26:59;;;;;;;9.23;5.57;;;6.10;50.60;;;;;;4992784;28;20038;-72
2021/12/19 06:29:26;;;;;;;8.73;4.88;;;6.10;50.60;;;;;;4975298;28;20066;-71
2021/12/19 06:31:52;;;;;;;10.48;5.13;;;6.10;50.60;;;;;;4992872;28;20125;-71
2021/12/19 06:34:18;;;;;;;8.65;4.97;;;6.10;50.50;;;;;;4996524;28;20061;-72
2021/12/19 06:36:44;;;;;;;11.18;5.55;;;6.10;50.80;;;;;;4996673;28;20026;-72
2021/12/19 06:39:09;;;;;;;10.50;5.68;;;6.10;51.10;;;;;;5005204;28;20034;-72
2021/12/19 06:41:36;;;;;;;10.68;5.60;;;6.10;51.00;;;;;;5016089;28;20026;-72
2021/12/19 06:44:03;;;;;;;8.48;5.18;;;6.20;51.00;;;;;;5016115;28;20314;-72
2021/12/19 06:46:30;;;;;;;8.27;4.95;;;6.20;50.80;;;;;;5016022;28;20030;-72
2021/12/19 06:48:56;;;;;;;9.50;5.25;;;6.20;50.80;;;;;;5015679;28;20054;-72
2021/12/19 06:51:22;;;;;;;8.45;5.10;;;6.20;51.00;;;;;;5015716;28;20029;-70
2021/12/19 06:53:48;;;;;;;11.65;5.38;;;6.20;51.00;;;;;;5015768;28;20022;-71
2021/12/19 06:56:14;;;;;;;11.32;5.38;;;6.30;51.60;;;;;;5015745;28;20072;-72
2021/12/19 06:58:41;;;;;;;11.00;5.57;;;6.30;50.80;;;;;;4997928;28;20022;-72
2021/12/19 07:01:06;;;;;;;12.20;6.30;;;6.40;51.00;;;;;;5015771;28;20550;-71
2021/12/19 07:03:32;;;;;;;11.45;5.90;;;6.50;51.10;;;;;;5015673;28;20114;-72
2021/12/19 07:06:00;;;;;;;9.32;5.45;;;6.60;50.90;;;;;;5015508;28;20029;-71
2021/12/19 07:08:26;;;;;;;10.23;5.78;;;6.60;50.60;;;;;;5015541;28;20030;-71
2021/12/19 07:10:52;;;;;;;9.00;5.10;;;6.70;50.60;;;;;;5015656;28;20108;-71
2021/12/19 07:13:20;;;;;;;9.13;5.57;;;6.80;50.80;;;;;;5015961;28;20057;-73
2021/12/19 07:15:50;;;;;;;11.63;5.95;;;6.90;50.90;;;;;;4997912;28;20075;-72
2021/12/19 07:18:17;;;;;;;10.32;6.10;;;6.90;50.50;;;;;;5015574;28;20022;-72
2021/12/19 07:20:43;;;;;;;11.30;5.85;;;6.90;50.30;;;;;;5015553;28;20379;-73
2021/12/19 07:23:13;;;;;;;10.10;5.53;;;6.90;50.20;;;;;;5015178;28;20030;-72
2021/12/19 07:25:40;;;;;;;9.18;5.28;;;6.90;50.20;;;;;;5015709;28;20080;-72
2021/12/19 07:28:07;;;;;;;9.60;5.18;;;7.00;50.50;;;;;;5015307;28;20107;-72
2021/12/19 07:30:36;;;;;;;10.13;5.55;;;7.00;50.30;;;;;;5015357;28;20582;-72
2021/12/19 07:33:03;;;;;;;8.82;5.55;;;6.90;50.20;;;;;;5014855;28;20538;-72
2021/12/19 07:35:31;;;;;;;9.93;4.50;;;6.90;50.30;;;;;;5014821;28;20026;-72
2021/12/19 07:37:57;;;;;;;7.70;4.18;;;7.00;50.60;;;;;;5014736;28;20014;-71
2021/12/19 07:40:24;;;;;;;8.75;4.60;;;7.20;50.40;;;;;;5013595;28;20483;-72
2021/12/19 07:42:52;;;;;;;7.82;4.25;;;7.20;50.40;;;;;;5014750;28;20042;-72
2021/12/19 07:45:18;;;;;;;9.43;4.75;;;7.30;50.30;;;;;;5014658;28;20068;-72
2021/12/19 07:47:45;;;;;;;9.10;4.53;;;7.30;50.50;;;;;;5014619;28;20057;-72
2021/12/19 07:50:12;;;;;;;7.80;4.72;;;7.40;50.30;;;;;;5013935;28;20458;-75
2021/12/19 07:52:38;;;;;;;6.63;3.92;;;7.30;50.00;;;;;;5012149;28;20025;-72
2021/12/19 07:55:05;;;;;;;7.47;4.15;;;7.20;50.20;;;;;;5014451;28;20465;-72
2021/12/19 07:57:31;;;;;;;10.75;5.10;;;7.20;50.40;;;;;;5013527;28;20028;-71
2021/12/19 07:59:57;;;;;;;10.38;4.97;;;7.20;50.00;;;;;;4994859;28;20065;-72
2021/12/19 08:02:23;;;;;;;7.85;5.45;;;7.20;50.30;;;;;;5010830;28;20068;-80
2021/12/19 08:04:48;;;;;;;9.75;4.85;;;7.20;50.20;;;;;;5014436;28;20546;-69
2021/12/19 08:07:16;;;;;;;8.32;4.80;;;7.20;50.10;;;;;;5014199;28;20464;-73
2021/12/19 08:10:03;;;;;;;10.20;5.35;;;7.00;50.10;;;;;;4996588;28;20420;-70
2021/12/19 08:12:29;;;;;;;8.30;4.95;;;7.10;50.20;;;;;;5014409;28;20022;-74
2021/12/19 08:14:55;;;;;;;10.15;5.18;;;7.10;50.20;;;;;;5014131;28;20108;-68
2021/12/19 08:17:23;;;;;;;9.48;5.50;;;7.10;50.40;;;;;;5013882;28;20114;-71
2021/12/19 08:19:49;;;;;;;9.43;5.10;;;7.20;50.60;;;;;;5014311;28;20121;-69
2021/12/19 08:22:16;;;;;;;50.17;28.25;;;7.30;50.30;;;;;;4996265;28;20025;-72
2021/12/19 08:24:43;;;;;;;32.15;17.48;;;7.40;50.50;;;;;;4996191;28;20034;-73
2021/12/19 08:27:09;;;;;;;17.25;9.55;;;7.40;50.40;;;;;;5009804;28;20487;-70
2021/12/19 08:29:35;;;;;;;10.38;5.68;;;7.40;50.20;;;;;;4984759;28;20483;-69
2021/12/19 08:32:01;;;;;;;9.25;5.20;;;7.50;50.20;;;;;;5013497;28;20079;-69
2021/12/19 08:34:28;;;;;;;12.95;5.25;;;7.50;50.20;;;;;;5013491;28;20083;-73
2021/12/19 08:36:54;;;;;;;10.18;5.35;;;7.50;49.90;;;;;;5013589;28;20018;-71
2021/12/19 08:39:22;;;;;;;8.30;4.90;;;7.60;50.00;;;;;;5004606;28;20022;-72
2021/12/19 08:41:48;;;;;;;13.88;5.35;;;7.60;50.20;;;;;;5004500;28;20069;-72
2021/12/19 08:44:15;;;;;;;10.00;5.43;;;7.70;50.10;;;;;;5006815;28;20022;-74
2021/12/19 08:46:41;;;;;;;8.85;5.57;;;7.80;50.10;;;;;;5009919;28;20057;-71
2021/12/19 08:49:08;;;;;;;11.73;5.10;;;7.80;50.00;;;;;;5013057;28;20139;-72
2021/12/19 08:51:35;;;;;;;12.23;5.30;;;7.90;50.00;;;;;;5013379;28;20045;-71
2021/12/19 08:54:01;;;;;;;11.35;5.30;;;8.00;49.90;;;;;;5013389;28;20040;-73
2021/12/19 08:56:29;;;;;;;8.20;4.95;;;8.00;49.80;;;;;;5012925;28;20084;-70
2021/12/19 08:58:58;;;;;;;7.82;5.25;;;8.10;49.70;;;;;;4995922;28;20029;-71
2021/12/19 09:01:24;;;;;;;9.70;5.00;;;8.10;49.20;;;;;;5013753;28;20502;-77
2021/12/19 09:03:49;;;;;;;7.90;4.80;;;8.20;49.50;;;;;;5013240;28;20037;-70
2021/12/19 09:06:15;;;;;;;8.27;5.18;;;8.20;49.20;;;;;;5006032;28;20045;-75
2021/12/19 09:08:46;;;;;;;10.43;5.25;;;8.30;49.20;;;;;;4995860;28;20041;-79
2021/12/19 09:11:13;;;;;;;9.95;5.25;;;8.30;48.90;;;;;;5013678;28;20030;-72
2021/12/19 09:13:39;;;;;;;11.18;5.20;;;8.40;48.80;;;;;;5013320;28;20062;-70
2021/12/19 09:16:05;;;;;;;12.38;5.35;;;8.60;49.10;;;;;;4996170;28;20057;-70
2021/12/19 09:18:31;;;;;;;9.55;4.60;;;8.70;48.90;;;;;;5013082;28;20032;-68
2021/12/19 09:20:57;;;;;;;7.03;4.57;;;8.70;48.60;;;;;;5013736;28;20030;-76
2021/12/19 09:23:23;;;;;;;15.60;8.07;;;8.80;48.50;;;;;;5013618;28;20041;-75
2021/12/19 09:25:49;;;;;;;15.00;8.38;;;8.90;48.10;;;;;;5007405;28;20026;-80
2021/12/19 09:28:15;;;;;;;8.60;4.60;;;8.90;48.10;;;;;;5006857;28;20052;-71
2021/12/19 09:30:42;;;;;;;7.88;4.65;;;9.00;47.80;;;;;;5013047;28;20025;-68
2021/12/19 09:33:08;;;;;;;7.43;4.63;;;9.10;47.70;;;;;;5013464;28;20026;-70
2021/12/19 09:35:34;;;;;;;8.60;4.70;;;9.20;47.70;;;;;;5013256;28;20084;-69
2021/12/19 09:38:02;;;;;;;7.75;4.15;;;9.20;47.20;;;;;;5013502;28;20030;-73
2021/12/19 09:40:36;;;;;;;6.95;4.10;;;9.30;46.90;;;;;;5013880;28;20030;-72
2021/12/19 09:43:05;;;;;;;9.90;4.50;;;9.30;46.60;;;;;;5005906;28;20026;-71
2021/12/19 09:45:33;;;;;;;7.07;4.78;;;9.40;46.70;;;;;;5012653;28;20038;-73
2021/12/19 09:47:59;;;;;;;8.85;4.60;;;9.50;46.90;;;;;;5012673;28;20104;-72
2021/12/19 09:50:25;;;;;;;7.57;3.97;;;9.60;46.70;;;;;;5012776;28;20518;-71
2021/12/19 09:52:51;;;;;;;9.73;4.00;;;9.70;46.10;;;;;;5015167;28;20014;-76
2021/12/19 09:55:21;;;;;;;8.65;3.90;;;9.70;45.00;;;;;;5013374;28;20030;-73
2021/12/19 09:57:51;;;;;;;8.30;3.67;;;9.70;43.80;;;;;;5013776;28;20030;-72
2021/12/19 10:00:18;;;;;;;7.72;4.05;;;9.80;44.00;;;;;;5014106;28;20041;-71
2021/12/19 10:02:44;;;;;;;8.65;4.30;;;9.90;44.80;;;;;;5012889;28;20026;-72
2021/12/19 10:05:22;;;;;;;6.68;4.13;;;10.00;43.60;;;;;;5012949;28;20034;-75
2021/12/19 10:07:56;;;;;;;9.75;3.78;;;10.10;44.10;;;;;;5015597;28;20045;-75
2021/12/19 10:10:54;;;;;;;7.00;3.60;;;10.20;44.00;;;;;;5017008;28;20026;-77
2021/12/19 10:13:31;;;;;;;5.90;3.35;;;10.30;43.60;;;;;;5016798;28;20033;-77
2021/12/19 10:15:57;;;;;;;8.98;3.80;;;10.40;41.40;;;;;;4998755;28;20048;-71
2021/12/19 10:18:22;;;;;;;6.65;3.80;;;10.40;40.90;;;;;;4998689;28;20109;-75
2021/12/19 10:20:53;;;;;;;7.32;3.78;;;10.50;41.20;;;;;;5016619;28;20022;-77
2021/12/19 10:23:24;;;;;;;6.65;3.55;;;10.60;40.90;;;;;;5016558;28;20099;-77
2021/12/19 10:25:59;;;;;;;9.85;5.05;;;10.60;40.50;;;;;;5016206;28;20523;-76
2021/12/19 10:28:28;;;;;;;6.22;3.85;;;10.70;41.00;;;;;;5016410;28;20121;-72
2021/12/19 10:30:56;;;;;;;8.50;4.30;;;10.80;40.60;;;;;;5016320;28;20379;-73
2021/12/19 10:33:25;;;;;;;9.27;4.90;;;10.90;40.90;;;;;;5016222;28;20029;-71
2021/12/19 10:35:56;;;;;;;6.95;3.75;;;11.00;41.00;;;;;;5016110;28;20018;-72
2021/12/19 10:38:24;;;;;;;6.43;3.67;;;11.00;40.20;;;;;;5016034;28;20107;-73
2021/12/19 10:41:08;;;;;;;7.70;3.95;;;11.10;40.50;;;;;;5016219;28;20476;-75
2021/12/19 10:43:41;;;;;;;7.22;3.83;;;11.20;42.00;;;;;;5016239;28;20029;-72
2021/12/19 10:46:07;;;;;;;7.78;3.50;;;11.30;40.40;;;;;;5016253;28;20029;-73
2021/12/19 10:48:38;;;;;;;9.32;3.92;;;11.30;40.10;;;;;;5015936;28;20383;-73
2021/12/19 10:51:11;;;;;;;5.75;3.10;;;11.40;40.60;;;;;;5015843;28;20038;-72
2021/12/19 10:53:42;;;;;;;8.15;4.07;;;11.50;40.30;;;;;;5015566;28;20079;-71
2021/12/19 10:56:29;;;;;;;8.68;4.30;;;11.50;40.10;;;;;;5015666;28;20061;-71
2021/12/19 10:59:16;;;;;;;6.80;3.97;;;11.50;40.20;;;;;;5015607;28;20022;-72
2021/12/19 11:01:48;;;;;;;8.75;4.03;;;11.60;40.10;;;;;;5015639;28;20022;-71
2021/12/19 11:04:17;;;;;;;12.32;7.50;;;11.60;39.80;;;;;;5015691;28;20033;-71
2021/12/19 11:06:54;;;;;;;11.48;5.57;;;11.70;40.10;;;;;;5015568;28;20068;-71
2021/12/19 11:09:28;;;;;;;10.23;5.03;;;11.80;40.20;;;;;;5014991;28;20049;-80
2021/12/19 11:12:02;;;;;;;7.47;4.47;;;11.80;40.40;;;;;;5015646;28;20080;-76
2021/12/19 11:14:38;;;;;;;10.48;5.00;;;11.90;40.40;;;;;;5015277;28;20037;-72
2021/12/19 11:17:10;;;;;;;10.13;4.70;;;12.00;39.60;;;;;;5015538;28;20380;-74
2021/12/19 11:19:37;;;;;;;8.82;4.72;;;12.00;39.60;;;;;;5014426;28;20489;-74
2021/12/19 11:22:04;;;;;;;7.70;4.45;;;12.10;39.50;;;;;;5015427;28;20034;-72
2021/12/19 11:24:30;;;;;;;8.35;4.43;;;12.20;39.30;;;;;;5015460;28;20025;-73
2021/12/19 11:26:58;;;;;;;8.23;5.00;;;12.20;39.50;;;;;;5015521;28;20094;-77
2021/12/19 11:29:25;;;;;;;8.73;4.97;;;12.20;39.60;;;;;;5015201;28;20034;-74
2021/12/19 11:31:58;;;;;;;8.07;4.10;;;12.30;39.40;;;;;;5015120;28;20025;-73
2021/12/19 11:35:09;;;;;;;8.77;4.25;;;12.40;39.70;;;;;;5014869;28;20088;-74
2021/12/19 11:37:40;;;;;;;6.70;3.42;;;12.40;39.20;;;;;;4986947;28;20049;-75
2021/12/19 11:40:08;;;;;;;7.90;3.80;;;12.40;39.10;;;;;;5014979;28;20033;-78
2021/12/19 11:42:40;;;;;;;9.88;4.20;;;12.50;38.50;;;;;;5015060;28;20025;-71
2021/12/19 11:47:57;;;;;;;7.65;4.05;;;12.60;38.10;;;;;;5015181;28;20387;-75
2021/12/19 11:50:28;;;;;;;7.25;4.20;;;12.60;38.00;;;;;;5014854;28;20042;-76
2021/12/19 11:52:57;;;;;;;6.93;4.15;;;12.70;37.40;;;;;;5014619;28;20056;-71
2021/12/19 11:55:49;;;;;;;7.47;4.80;;;12.70;37.80;;;;;;5014770;28;20344;-71
2021/12/19 11:58:17;;;;;;;7.90;4.63;;;12.80;37.20;;;;;;5013806;28;20113;-79
2021/12/19 12:00:53;;;;;;;7.88;4.40;;;12.90;38.10;;;;;;5014388;28;20072;-77
2021/12/19 12:03:23;;;;;;;12.32;5.30;;;13.00;38.10;;;;;;5014630;28;20076;-73
2021/12/19 12:05:53;;;;;;;7.97;4.82;;;13.00;37.40;;;;;;5014160;28;20075;-77
2021/12/19 12:08:25;;;;;;;12.00;4.93;;;13.10;38.30;;;;;;5014278;28;20158;-75
2021/12/19 12:10:58;;;;;;;8.02;5.20;;;13.20;38.40;;;;;;4996923;28;20391;-70
2021/12/19 12:13:36;;;;;;;11.15;5.50;;;13.20;38.10;;;;;;5014616;28;20045;-73
2021/12/19 12:16:19;;;;;;;8.95;5.75;;;13.20;37.30;;;;;;5014755;28;20064;-77
2021/12/19 12:18:52;;;;;;;10.60;6.35;;;13.30;37.90;;;;;;5014645;28;20062;-77
2021/12/19 12:21:24;;;;;;;11.63;5.50;;;13.40;38.30;;;;;;5015023;28;20068;-76
2021/12/19 12:23:54;;;;;;;8.75;5.68;;;13.40;37.30;;;;;;5016368;28;20080;-79
2021/12/19 12:26:53;;;;;;;9.10;5.63;;;13.50;37.00;;;;;;5023153;28;20064;-78
2021/12/19 12:29:19;;;;;;;12.57;5.00;;;13.50;37.70;;;;;;4985430;28;20045;-76
2021/12/19 12:31:47;;;;;;;10.95;5.35;;;13.50;37.40;;;;;;5014334;28;20014;-81
2021/12/19 12:34:15;;;;;;;8.65;5.25;;;13.60;37.60;;;;;;4997298;28;20025;-77
2021/12/19 12:36:41;;;;;;;9.70;5.45;;;13.60;37.60;;;;;;5014283;28;20053;-78
2021/12/19 12:39:16;;;;;;;8.80;4.90;;;13.70;37.30;;;;;;5013902;28;20057;-76
2021/12/19 12:42:00;;;;;;;12.05;6.03;;;13.70;37.20;;;;;;4996235;28;20054;-80
2021/12/19 12:44:27;;;;;;;8.65;5.03;;;13.70;36.20;;;;;;5014169;28;20122;-80
2021/12/19 12:46:53;;;;;;;11.18;5.85;;;13.70;37.30;;;;;;5014013;28;20022;-75
2021/12/19 12:49:34;;;;;;;9.52;5.43;;;13.70;36.80;;;;;;5013614;28;20153;-79
2021/12/19 12:52:06;;;;;;;7.85;4.38;;;13.80;37.20;;;;;;4996250;28;20487;-71
2021/12/19 12:54:38;;;;;;;10.82;5.68;;;13.80;36.50;;;;;;5013653;28;20026;-73
2021/12/19 12:57:14;;;;;;;9.93;5.32;;;13.90;37.00;;;;;;5013597;28;20052;-73
2021/12/19 12:59:41;;;;;;;13.00;5.45;;;13.90;37.00;;;;;;5013518;28;20018;-73
2021/12/19 13:02:16;;;;;;;8.77;4.70;;;14.00;36.60;;;;;;5013475;28;20060;-71
2021/12/19 13:04:44;;;;;;;10.27;4.70;;;14.00;36.90;;;;;;5013355;28;20088;-73
2021/12/19 13:07:16;;;;;;;10.50;4.78;;;14.10;37.60;;;;;;5013571;28;20467;-78
2021/12/19 13:09:46;;;;;;;12.63;6.13;;;14.10;35.70;;;;;;4996212;28;20117;-77
2021/12/19 13:12:22;;;;;;;9.85;4.88;;;14.20;36.70;;;;;;5013890;28;20468;-75
2021/12/19 13:14:53;;;;;;;8.27;4.00;;;14.20;35.40;;;;;;5013417;28;20498;-78
2021/12/19 13:17:35;;;;;;;9.38;4.05;;;14.20;36.50;;;;;;4995520;28;20092;-80
2021/12/19 13:20:22;;;;;;;7.85;4.10;;;14.20;35.10;;;;;;5013259;28;20105;-72
2021/12/19 13:22:54;;;;;;;6.88;4.38;;;14.20;34.80;;;;;;5013574;28;20387;-77
2021/12/19 13:25:25;;;;;;;8.32;3.97;;;14.20;35.00;;;;;;4995727;28;20064;-70
2021/12/19 13:27:53;;;;;;;7.57;4.07;;;14.20;34.70;;;;;;5012693;28;20442;-70
2021/12/19 13:30:24;;;;;;;10.80;4.15;;;14.30;36.00;;;;;;5013132;28;20052;-72
2021/12/19 13:32:57;;;;;;;7.15;3.88;;;14.30;35.90;;;;;;5013039;28;20426;-72
2021/12/19 13:35:28;;;;;;;7.45;3.67;;;14.30;34.80;;;;;;5012963;28;20139;-71
2021/12/19 13:38:00;;;;;;;15.73;11.48;;;14.30;36.10;;;;;;5012539;28;20018;-72
2021/12/19 13:40:30;;;;;;;10.98;5.18;;;14.40;35.20;;;;;;5013077;28;20456;-73
2021/12/19 13:43:06;;;;;;;8.85;4.15;;;14.40;36.30;;;;;;5012573;28;20026;-72
2021/12/19 13:45:38;;;;;;;7.90;4.38;;;14.40;35.00;;;;;;4995213;28;20022;-72
2021/12/19 13:48:21;;;;;;;10.63;4.38;;;14.50;36.30;;;;;;5012527;28;20030;-73
2021/12/19 13:51:12;;;;;;;7.53;4.30;;;14.50;36.20;;;;;;4994700;28;20050;-72
2021/12/19 13:53:40;;;;;;;7.72;4.10;;;14.50;35.10;;;;;;5004484;28;20072;-71
2021/12/19 13:56:18;;;;;;;8.45;4.25;;;14.40;36.20;;;;;;5012628;28;20040;-70